createdAt,value
2018-06-03T00:00:17.911Z,99.99
2018-06-03T00:01:18.103Z,99.99
2018-06-03T00:02:18.305Z,99.99
2018-06-03T00:03:18.490Z,99.99
2018-06-03T00:04:18.688Z,99.99
2018-06-03T00:05:18.899Z,99.99
2018-06-03T00:06:19.095Z,99.99
2018-06-03T00:07:19.309Z,99.99
2018-06-03T00:08:19.494Z,99.99
2018-06-03T00:09:19.757Z,99.99
2018-06-03T00:10:19.817Z,99.99
2018-06-03T00:11:20.006Z,99.99
2018-06-03T00:13:51.904Z,99.99
2018-06-03T00:14:51.953Z,99.99
2018-06-03T00:15:52.144Z,99.99
2018-06-03T00:16:52.345Z,99.99
2018-06-03T00:17:52.537Z,99.99
2018-06-03T00:18:52.745Z,99.99
2018-06-03T00:19:52.960Z,99.99
2018-06-03T00:20:53.149Z,99.99
2018-06-03T00:21:53.359Z,99.99
2018-06-03T00:22:53.579Z,99.99
2018-06-03T00:23:53.789Z,99.99
2018-06-03T00:24:54.000Z,99.99
2018-06-03T00:25:54.207Z,99.99
2018-06-03T00:26:54.411Z,99.99
2018-06-03T00:27:54.595Z,99.99
2018-06-03T00:28:54.810Z,99.99
2018-06-03T00:29:55.028Z,99.99
2018-06-03T00:30:55.213Z,99.99
2018-06-03T00:31:55.476Z,99.99
2018-06-03T00:32:55.558Z,99.99
2018-06-03T00:33:55.763Z,99.99
2018-06-03T00:34:55.941Z,99.99
2018-06-03T00:35:56.146Z,99.99
2018-06-03T00:36:56.329Z,99.99
2018-06-03T00:37:56.538Z,99.99
2018-06-03T00:38:56.779Z,99.99
2018-06-03T00:39:56.992Z,99.99
2018-06-03T00:40:57.181Z,99.99
2018-06-03T00:41:57.393Z,99.99
2018-06-03T00:42:57.581Z,99.99
2018-06-03T00:43:57.793Z,99.99
2018-06-03T00:44:57.982Z,99.99
2018-06-03T00:45:58.194Z,99.99
2018-06-03T00:46:58.404Z,99.99
2018-06-03T00:47:58.597Z,99.99
2018-06-03T00:48:58.803Z,99.99
2018-06-03T00:49:59.010Z,99.99
2018-06-03T00:50:59.209Z,99.99
2018-06-03T00:51:59.409Z,99.99
2018-06-03T00:52:59.625Z,99.99
2018-06-03T00:53:59.844Z,99.99
2018-06-03T00:55:00.030Z,99.99
2018-06-03T00:56:00.221Z,99.99
2018-06-03T00:57:00.408Z,99.99
2018-06-03T00:58:00.624Z,99.99
2018-06-03T00:59:00.826Z,99.99
2018-06-03T01:00:01.036Z,99.99
2018-06-03T01:01:01.224Z,99.99
2018-06-03T01:02:01.447Z,99.99
2018-06-03T01:03:01.638Z,99.99
2018-06-03T01:04:01.863Z,99.99
2018-06-03T01:05:02.060Z,99.99
2018-06-03T01:06:02.264Z,99.99
2018-06-03T01:07:02.470Z,99.99
2018-06-03T01:08:02.686Z,99.99
2018-06-03T01:09:02.898Z,99.99
2018-06-03T01:10:03.110Z,99.99
2018-06-03T01:11:03.324Z,99.99
2018-06-03T01:12:03.589Z,99.99
2018-06-03T01:13:03.667Z,99.99
2018-06-03T01:14:03.865Z,99.99
2018-06-03T01:15:04.065Z,99.99
2018-06-03T01:16:04.273Z,99.99
2018-06-03T01:17:04.466Z,99.99
2018-06-03T01:18:04.669Z,99.99
2018-06-03T01:19:04.864Z,99.99
2018-06-03T01:20:05.102Z,99.99
2018-06-03T01:21:05.288Z,99.99
2018-06-03T01:22:05.493Z,99.99
2018-06-03T01:23:05.700Z,99.99
2018-06-03T01:24:05.902Z,99.99
2018-06-03T01:25:06.091Z,99.99
2018-06-03T01:26:06.289Z,99.99
2018-06-03T01:27:06.490Z,99.99
2018-06-03T01:28:06.700Z,99.99
2018-06-03T01:29:06.918Z,99.99
2018-06-03T01:30:07.169Z,99.99
2018-06-03T01:31:07.255Z,99.99
2018-06-03T01:32:07.436Z,99.99
2018-06-03T01:33:07.664Z,99.99
2018-06-03T01:34:07.864Z,99.99
2018-06-03T01:35:08.083Z,99.99
2018-06-03T01:36:08.265Z,99.99
2018-06-03T01:37:08.470Z,99.99
2018-06-03T01:38:08.681Z,99.99
2018-06-03T01:39:08.866Z,99.99
2018-06-03T01:40:09.065Z,99.99
2018-06-03T01:41:09.255Z,99.99
2018-06-03T01:42:09.448Z,99.99
2018-06-03T01:43:09.636Z,99.99
2018-06-03T01:44:09.840Z,99.99
2018-06-03T01:45:10.048Z,99.99
2018-06-03T01:46:10.266Z,99.99
2018-06-03T01:47:10.476Z,99.99
2018-06-03T01:48:10.669Z,99.99
2018-06-03T01:49:10.857Z,99.99
2018-06-03T01:50:11.042Z,99.99
2018-06-03T01:51:11.254Z,99.99
2018-06-03T01:52:11.468Z,99.99
2018-06-03T01:53:11.656Z,99.99
2018-06-03T01:54:11.839Z,99.99
2018-06-03T01:55:12.037Z,99.99
2018-06-03T01:56:12.261Z,99.99
2018-06-03T01:57:12.493Z,99.99
2018-06-03T01:58:12.694Z,99.99
2018-06-03T01:59:12.895Z,99.99
2018-06-03T02:00:13.090Z,99.99
2018-06-03T02:01:13.282Z,99.99
2018-06-03T02:02:13.497Z,99.99
2018-06-03T02:03:13.689Z,99.99
2018-06-03T02:04:13.881Z,99.99
2018-06-03T02:05:14.078Z,99.99
2018-06-03T02:06:14.296Z,99.99
2018-06-03T02:07:14.485Z,99.99
2018-06-03T02:08:14.675Z,99.99
2018-06-03T02:09:14.884Z,99.99
2018-06-03T02:10:15.085Z,99.99
2018-06-03T02:11:15.283Z,99.99
2018-06-03T02:12:15.471Z,99.99
2018-06-03T02:14:49.431Z,99.99
2018-06-03T02:15:47.726Z,99.99
2018-06-03T02:16:47.935Z,99.99
2018-06-03T02:17:48.135Z,99.99
2018-06-03T02:18:48.334Z,99.99
2018-06-03T02:19:48.527Z,99.99
2018-06-03T02:20:48.736Z,99.99
2018-06-03T02:21:48.945Z,99.99
2018-06-03T02:22:49.141Z,99.99
2018-06-03T02:23:49.325Z,99.99
2018-06-03T02:24:49.529Z,99.99
2018-06-03T02:25:49.717Z,99.99
2018-06-03T02:26:49.912Z,99.99
2018-06-03T02:27:50.121Z,99.99
2018-06-03T02:28:50.332Z,99.99
2018-06-03T02:29:50.549Z,99.99
2018-06-03T02:30:50.753Z,99.99
2018-06-03T02:31:50.957Z,99.99
2018-06-03T02:32:51.142Z,99.99
2018-06-03T02:33:51.333Z,99.99
2018-06-03T02:34:51.541Z,99.99
2018-06-03T02:37:25.446Z,99.99
2018-06-03T02:38:23.871Z,99.99
2018-06-03T02:39:24.053Z,99.99
2018-06-03T02:40:24.258Z,99.99
2018-06-03T02:41:24.446Z,99.99
2018-06-03T02:42:24.657Z,99.99
2018-06-03T02:43:24.852Z,99.99
2018-06-03T02:44:25.075Z,99.99
2018-06-03T02:45:25.273Z,99.99
2018-06-03T02:46:25.464Z,99.99
2018-06-03T02:47:25.651Z,99.99
2018-06-03T02:48:25.862Z,99.99
2018-06-03T02:49:26.063Z,99.99
2018-06-03T02:50:26.261Z,99.99
2018-06-03T02:51:26.447Z,99.99
2018-06-03T02:52:26.635Z,99.99
2018-06-03T02:53:26.818Z,99.99
2018-06-03T02:54:27.017Z,99.99
2018-06-03T02:55:27.224Z,99.99
2018-06-03T02:56:27.428Z,99.99
2018-06-03T02:57:27.604Z,99.99
2018-06-03T02:58:27.792Z,99.99
2018-06-03T02:59:27.972Z,99.99
2018-06-03T03:00:28.171Z,99.99
2018-06-03T03:01:28.382Z,99.99
2018-06-03T03:02:28.591Z,99.99
2018-06-03T03:03:28.782Z,99.99
2018-06-03T03:04:28.998Z,99.99
2018-06-03T03:05:29.190Z,99.99
2018-06-03T03:06:29.381Z,99.99
2018-06-03T03:07:29.570Z,99.99
2018-06-03T03:08:29.749Z,99.99
2018-06-03T03:09:29.972Z,99.99
2018-06-03T03:10:30.149Z,99.99
2018-06-03T03:11:30.340Z,99.99
2018-06-03T03:12:30.551Z,99.99
2018-06-03T03:13:30.737Z,99.99
2018-06-03T03:14:30.941Z,99.99
2018-06-03T03:15:31.153Z,99.99
2018-06-03T03:16:31.346Z,99.99
2018-06-03T03:17:31.529Z,99.99
2018-06-03T03:18:31.733Z,99.99
2018-06-03T03:19:31.915Z,99.99
2018-06-03T03:20:32.125Z,99.99
2018-06-03T03:21:32.315Z,99.99
2018-06-03T03:22:32.507Z,99.99
2018-06-03T03:23:32.691Z,99.99
2018-06-03T03:24:32.878Z,99.99
2018-06-03T03:25:33.083Z,99.99
2018-06-03T03:26:33.468Z,99.99
2018-06-03T03:27:33.432Z,99.99
2018-06-03T03:28:33.622Z,99.99
2018-06-03T03:29:33.924Z,99.99
2018-06-03T03:30:34.021Z,99.99
2018-06-03T03:31:34.222Z,99.99
2018-06-03T03:32:34.424Z,99.99
2018-06-03T03:33:34.633Z,99.99
2018-06-03T03:34:34.829Z,99.99
2018-06-03T03:35:35.010Z,99.99
2018-06-03T03:36:35.216Z,99.99
2018-06-03T03:37:35.431Z,99.99
2018-06-03T03:38:35.622Z,99.99
2018-06-03T03:39:35.825Z,99.99
2018-06-03T03:40:36.044Z,99.99
2018-06-03T03:41:36.241Z,99.99
2018-06-03T03:42:36.446Z,99.99
2018-06-03T03:43:36.634Z,99.99
2018-06-03T03:44:36.827Z,99.99
2018-06-03T03:45:37.015Z,99.99
2018-06-03T03:46:37.207Z,99.99
2018-06-03T03:47:37.513Z,99.99
2018-06-03T03:48:37.597Z,99.99
2018-06-03T03:49:37.780Z,99.99
2018-06-03T03:50:37.973Z,99.99
2018-06-03T03:51:38.182Z,99.99
2018-06-03T03:52:38.366Z,99.99
2018-06-03T03:53:38.568Z,99.99
2018-06-03T03:54:38.762Z,99.99
2018-06-03T03:57:10.969Z,99.99
2018-06-03T03:58:11.146Z,99.99
2018-06-03T03:59:11.333Z,99.99
2018-06-03T04:00:11.544Z,99.99
2018-06-03T04:01:11.767Z,99.99
2018-06-03T04:02:11.980Z,99.99
2018-06-03T04:03:12.169Z,99.99
2018-06-03T04:04:12.359Z,99.99
2018-06-03T04:05:12.572Z,99.99
2018-06-03T04:06:12.787Z,99.99
2018-06-03T04:07:12.994Z,99.99
2018-06-03T04:08:13.183Z,99.99
2018-06-03T04:09:13.384Z,99.99
2018-06-03T04:10:13.569Z,99.99
2018-06-03T04:11:13.755Z,99.99
2018-06-03T04:12:13.938Z,99.99
2018-06-03T04:13:14.168Z,99.99
2018-06-03T04:14:14.348Z,99.99
2018-06-03T04:15:14.543Z,99.99
2018-06-03T04:16:14.725Z,99.99
2018-06-03T04:17:14.916Z,99.99
2018-06-03T04:18:15.114Z,99.99
2018-06-03T04:19:15.385Z,99.99
2018-06-03T04:20:15.466Z,99.99
2018-06-03T04:21:15.649Z,99.99
2018-06-03T04:22:15.861Z,99.99
2018-06-03T04:23:16.059Z,99.99
2018-06-03T04:24:16.243Z,99.99
2018-06-03T04:25:16.424Z,99.99
2018-06-03T04:26:16.609Z,99.99
2018-06-03T04:27:16.816Z,99.99
2018-06-03T04:28:17.003Z,99.99
2018-06-03T04:29:17.198Z,99.99
2018-06-03T04:30:17.375Z,99.99
2018-06-03T04:31:17.587Z,99.99
2018-06-03T04:32:17.773Z,99.99
2018-06-03T04:33:17.981Z,99.99
2018-06-03T04:34:18.189Z,99.99
2018-06-03T04:35:18.393Z,99.99
2018-06-03T04:36:18.585Z,99.99
2018-06-03T04:37:18.772Z,99.99
2018-06-03T04:38:18.956Z,99.99
2018-06-03T04:40:51.085Z,99.99
2018-06-03T04:41:51.261Z,99.99
2018-06-03T04:42:51.506Z,99.99
2018-06-03T04:43:51.698Z,99.99
2018-06-03T04:44:51.894Z,99.99
2018-06-03T04:45:52.082Z,99.99
2018-06-03T04:46:52.281Z,99.99
2018-06-03T04:47:52.494Z,99.99
2018-06-03T04:48:52.683Z,99.99
2018-06-03T04:49:52.872Z,99.99
2018-06-03T04:50:53.083Z,99.99
2018-06-03T04:51:53.264Z,99.99
2018-06-03T04:52:53.481Z,99.99
2018-06-03T04:53:53.677Z,99.99
2018-06-03T04:54:53.876Z,99.99
2018-06-03T04:55:54.064Z,99.99
2018-06-03T04:56:54.258Z,99.99
2018-06-03T04:57:54.462Z,99.99
2018-06-03T04:58:54.644Z,99.99
2018-06-03T04:59:54.851Z,99.99
2018-06-03T05:00:55.052Z,99.99
2018-06-03T05:01:55.254Z,99.99
2018-06-03T05:02:55.468Z,99.99
2018-06-03T05:03:55.682Z,99.99
2018-06-03T05:04:55.876Z,99.99
2018-06-03T05:05:56.060Z,99.99
2018-06-03T05:06:56.252Z,99.99
2018-06-03T05:07:56.462Z,99.99
2018-06-03T05:08:56.658Z,99.99
2018-06-03T05:09:56.866Z,99.99
2018-06-03T05:10:57.055Z,99.99
2018-06-03T05:11:57.246Z,99.99
2018-06-03T05:12:57.431Z,99.99
2018-06-03T05:13:57.622Z,99.99
2018-06-03T05:14:57.885Z,99.99
2018-06-03T05:15:57.973Z,99.99
2018-06-03T05:16:58.183Z,99.99
2018-06-03T05:17:58.371Z,99.99
2018-06-03T05:18:58.586Z,99.99
2018-06-03T05:19:58.790Z,99.99
2018-06-03T05:20:58.992Z,99.99
2018-06-03T05:21:59.181Z,99.99
2018-06-03T05:22:59.379Z,99.99
2018-06-03T05:23:59.595Z,99.99
2018-06-03T05:24:59.810Z,99.99
2018-06-03T05:26:00.016Z,99.99
2018-06-03T05:27:00.217Z,99.99
2018-06-03T05:28:00.401Z,99.99
2018-06-03T05:29:00.606Z,99.99
2018-06-03T05:30:00.824Z,99.99
2018-06-03T05:31:01.021Z,99.99
2018-06-03T05:32:01.212Z,99.99
2018-06-03T05:33:01.469Z,99.99
2018-06-03T05:34:01.549Z,99.99
2018-06-03T05:35:01.757Z,99.99
2018-06-03T05:36:01.951Z,99.99
2018-06-03T05:37:02.150Z,99.99
2018-06-03T05:38:02.354Z,99.99
2018-06-03T05:39:02.542Z,99.99
2018-06-03T05:40:02.730Z,99.99
2018-06-03T05:41:02.945Z,99.99
2018-06-03T05:42:03.129Z,99.99
2018-06-03T05:43:03.314Z,99.99
2018-06-03T05:44:03.511Z,99.99
2018-06-03T05:45:03.724Z,99.99
2018-06-03T05:46:03.910Z,99.99
2018-06-03T05:47:04.188Z,99.99
2018-06-03T05:49:37.957Z,99.99
2018-06-03T05:50:36.507Z,99.99
2018-06-03T05:51:36.693Z,99.99
2018-06-03T05:52:36.886Z,99.99
2018-06-03T05:53:37.123Z,99.99
2018-06-03T05:54:37.321Z,99.99
2018-06-03T05:55:37.532Z,99.99
2018-06-03T05:56:37.744Z,99.99
2018-06-03T05:57:37.998Z,99.99
2018-06-03T05:58:38.071Z,99.99
2018-06-03T05:59:38.260Z,99.99
2018-06-03T06:00:38.469Z,99.99
2018-06-03T06:01:38.668Z,99.49
2018-06-03T06:02:38.871Z,99.99
2018-06-03T06:03:39.088Z,99.99
2018-06-03T06:04:39.273Z,99.99
2018-06-03T06:05:39.489Z,99.99
2018-06-03T06:06:39.680Z,99.99
2018-06-03T06:07:39.871Z,99.99
2018-06-03T06:08:40.067Z,99.99
2018-06-03T06:09:40.257Z,99.99
2018-06-03T06:10:40.481Z,99.99
2018-06-03T06:11:40.708Z,99.99
2018-06-03T06:12:40.902Z,99.99
2018-06-03T06:13:41.114Z,99.99
2018-06-03T06:14:41.303Z,99.99
2018-06-03T06:15:41.523Z,99.99
2018-06-03T06:16:41.740Z,99.99
2018-06-03T06:17:41.948Z,99.99
2018-06-03T06:18:42.139Z,99.99
2018-06-03T06:19:42.345Z,99.99
2018-06-03T06:20:42.545Z,99.99
2018-06-03T06:21:42.732Z,99.99
2018-06-03T06:22:42.926Z,99.99
2018-06-03T06:23:43.112Z,99.99
2018-06-03T06:24:43.313Z,99.99
2018-06-03T06:25:43.522Z,99.99
2018-06-03T06:26:43.740Z,99.99
2018-06-03T06:27:43.942Z,99.99
2018-06-03T06:28:44.143Z,99.99
2018-06-03T06:29:44.329Z,99.99
2018-06-03T06:30:44.547Z,99.99
2018-06-03T06:31:44.740Z,99.99
2018-06-03T06:34:16.923Z,99.97
2018-06-03T06:35:17.104Z,99.68
2018-06-03T06:36:17.304Z,98.29
2018-06-03T06:37:17.481Z,96.61
2018-06-03T06:38:17.674Z,95.84
2018-06-03T06:39:17.913Z,95.07
2018-06-03T06:40:18.106Z,95.50
2018-06-03T06:41:18.323Z,96.17
2018-06-03T06:42:18.525Z,95.84
2018-06-03T06:43:18.714Z,96.90
2018-06-03T06:44:18.910Z,95.65
2018-06-03T06:45:19.106Z,94.10
2018-06-03T06:46:19.301Z,91.99
2018-06-03T06:47:19.499Z,91.46
2018-06-03T06:48:19.721Z,93.58
2018-06-03T06:49:19.910Z,93.34
2018-06-03T06:50:20.110Z,93.82
2018-06-03T06:51:20.288Z,93.58
2018-06-03T06:52:20.490Z,93.24
2018-06-03T06:53:20.696Z,92.85
2018-06-03T06:54:20.889Z,92.13
2018-06-03T06:55:21.104Z,89.86
2018-06-03T06:56:21.294Z,88.13
2018-06-03T06:57:21.512Z,87.88
2018-06-03T06:58:21.700Z,86.48
2018-06-03T06:59:21.923Z,85.03
2018-06-03T07:00:22.129Z,84.69
2018-06-03T07:01:22.345Z,84.54
2018-06-03T07:02:22.549Z,83.19
2018-06-03T07:03:22.774Z,84.11
2018-06-03T07:04:22.975Z,83.96
2018-06-03T07:05:23.226Z,83.19
2018-06-03T07:06:23.429Z,83.04
2018-06-03T07:07:23.646Z,83.58
2018-06-03T07:08:23.859Z,81.01
2018-06-03T07:09:24.057Z,80.38
2018-06-03T07:11:56.373Z,76.33
2018-06-03T07:12:56.554Z,74.15
2018-06-03T07:13:56.767Z,73.11
2018-06-03T07:14:56.975Z,72.92
2018-06-03T07:15:57.195Z,72.44
2018-06-03T07:16:57.409Z,74.92
2018-06-03T07:17:57.614Z,71.83
2018-06-03T07:18:57.812Z,69.15
2018-06-03T07:19:58.033Z,67.73
2018-06-03T07:20:58.247Z,66.34
2018-06-03T07:21:58.459Z,68.89
2018-06-03T07:22:58.681Z,70.37
2018-06-03T07:23:58.883Z,72.79
2018-06-03T07:24:59.095Z,73.82
2018-06-03T07:25:59.298Z,75.97
2018-06-03T07:26:59.536Z,78.56
2018-06-03T07:29:31.625Z,79.37
2018-06-03T07:30:31.689Z,80.87
2018-06-03T07:31:31.888Z,81.07
2018-06-03T07:32:32.081Z,80.53
2018-06-03T07:33:32.294Z,80.58
2018-06-03T07:36:04.427Z,77.17
2018-06-03T07:37:04.613Z,72.41
2018-06-03T07:38:04.822Z,69.60
2018-06-03T07:39:05.055Z,65.40
2018-06-03T07:40:05.279Z,63.49
2018-06-03T07:41:05.481Z,63.78
2018-06-03T07:42:05.696Z,60.10
2018-06-03T07:43:05.994Z,57.63
2018-06-03T07:44:06.076Z,55.63
2018-06-03T07:45:06.270Z,55.68
2018-06-03T07:46:06.491Z,56.99
2018-06-03T07:47:06.682Z,58.32
2018-06-03T07:48:06.911Z,58.13
2018-06-03T07:49:07.105Z,57.45
2018-06-03T07:50:07.327Z,59.17
2018-06-03T07:51:07.553Z,59.23
2018-06-03T07:52:07.753Z,57.68
2018-06-03T07:53:07.986Z,58.72
2018-06-03T07:54:08.203Z,58.84
2018-06-03T07:55:08.414Z,54.44
2018-06-03T07:56:08.620Z,52.78
2018-06-03T07:57:08.831Z,54.46
2018-06-03T07:59:40.749Z,53.19
2018-06-03T08:00:40.939Z,53.27
2018-06-03T08:01:41.137Z,54.14
2018-06-03T08:02:41.347Z,52.97
2018-06-03T08:03:41.576Z,53.68
2018-06-03T08:04:41.780Z,50.75
2018-06-03T08:05:41.982Z,50.54
2018-06-03T08:06:42.211Z,50.44
2018-06-03T08:07:42.417Z,51.71
2018-06-03T08:08:42.607Z,50.54
2018-06-03T08:09:42.825Z,47.97
2018-06-03T08:10:43.053Z,46.59
2018-06-03T08:11:43.253Z,46.01
2018-06-03T08:12:43.584Z,44.51
2018-06-03T08:13:43.687Z,45.34
2018-06-03T08:14:43.871Z,45.91
2018-06-03T08:15:44.082Z,47.33
2018-06-03T08:16:44.307Z,48.14
2018-06-03T08:17:44.536Z,47.75
2018-06-03T08:18:44.958Z,45.91
2018-06-03T08:19:44.897Z,49.80
2018-06-03T08:20:45.102Z,48.60
2018-06-03T08:21:45.331Z,45.05
2018-06-03T08:22:45.536Z,44.80
2018-06-03T08:23:45.733Z,43.57
2018-06-03T08:24:45.936Z,42.53
2018-06-03T08:25:46.145Z,41.19
2018-06-03T08:26:46.361Z,42.06
2018-06-03T08:27:46.570Z,43.34
2018-06-03T08:28:46.786Z,46.01
2018-06-03T08:29:47.034Z,45.32
2018-06-03T08:30:47.240Z,48.11
2018-06-03T08:31:47.458Z,47.48
2018-06-03T08:32:47.690Z,47.77
2018-06-03T08:33:47.890Z,47.63
2018-06-03T08:34:48.098Z,44.17
2018-06-03T08:35:48.331Z,41.78
2018-06-03T08:36:48.538Z,40.27
2018-06-03T08:37:48.771Z,40.09
2018-06-03T08:38:49.005Z,41.35
2018-06-03T08:39:49.219Z,41.21
2018-06-03T08:40:49.455Z,40.88
2018-06-03T08:41:49.666Z,38.76
2018-06-03T08:42:49.887Z,40.58
2018-06-03T08:43:50.095Z,38.93
2018-06-03T08:44:50.320Z,40.41
2018-06-03T08:45:50.525Z,41.82
2018-06-03T08:46:50.733Z,42.60
2018-06-03T08:47:50.953Z,43.80
2018-06-03T08:48:51.165Z,43.02
2018-06-03T08:49:51.393Z,43.08
2018-06-03T08:50:51.591Z,41.72
2018-06-03T08:51:51.815Z,41.86
2018-06-03T08:52:52.036Z,42.91
2018-06-03T08:53:52.246Z,43.63
2018-06-03T08:54:52.455Z,45.18
2018-06-03T08:55:52.658Z,45.97
2018-06-03T08:56:52.878Z,47.53
2018-06-03T08:57:53.119Z,50.53
2018-06-03T08:58:53.329Z,52.67
2018-06-03T08:59:53.532Z,55.30
2018-06-03T09:00:53.859Z,51.48
2018-06-03T09:01:53.958Z,49.24
2018-06-03T09:02:54.184Z,49.29
2018-06-03T09:03:54.410Z,50.97
2018-06-03T09:04:54.645Z,57.43
2018-06-03T09:05:54.869Z,59.28
2018-06-03T09:08:28.792Z,58.11
2018-06-03T09:09:27.231Z,56.67
2018-06-03T09:10:27.462Z,55.47
2018-06-03T09:11:27.668Z,55.07
2018-06-03T09:12:27.869Z,53.05
2018-06-03T09:13:28.108Z,51.78
2018-06-03T09:14:28.271Z,50.43
2018-06-03T09:15:28.464Z,54.33
2018-06-03T09:16:28.689Z,52.90
2018-06-03T09:17:28.913Z,49.36
2018-06-03T09:18:29.127Z,45.97
2018-06-03T09:19:29.352Z,48.34
2018-06-03T09:20:29.563Z,49.61
2018-06-03T09:21:29.762Z,49.46
2018-06-03T09:22:30.047Z,50.38
2018-06-03T09:23:30.151Z,52.02
2018-06-03T09:24:30.353Z,52.99
2018-06-03T09:25:30.572Z,54.38
2018-06-03T09:26:30.771Z,54.50
2018-06-03T09:27:30.993Z,53.49
2018-06-03T09:28:31.218Z,51.56
2018-06-03T09:29:31.515Z,47.95
2018-06-03T09:30:31.612Z,53.22
2018-06-03T09:31:31.832Z,56.67
2018-06-03T09:32:32.068Z,57.93
2018-06-03T09:33:32.327Z,58.25
2018-06-03T09:34:32.539Z,60.74
2018-06-03T09:35:32.736Z,60.09
2018-06-03T09:36:32.965Z,57.95
2018-06-03T09:37:33.361Z,53.26
2018-06-03T09:38:33.422Z,51.36
2018-06-03T09:39:33.645Z,50.80
2018-06-03T09:40:33.853Z,52.48
2018-06-03T09:41:34.058Z,54.08
2018-06-03T09:42:34.283Z,55.71
2018-06-03T09:43:34.483Z,58.31
2018-06-03T09:44:34.766Z,58.28
2018-06-03T09:45:34.941Z,58.37
2018-06-03T09:46:35.156Z,58.06
2018-06-03T09:47:35.373Z,60.49
2018-06-03T09:48:35.599Z,59.48
2018-06-03T09:49:35.822Z,59.09
2018-06-03T09:50:36.365Z,62.07
2018-06-03T09:51:36.298Z,60.61
2018-06-03T09:52:36.502Z,58.61
2018-06-03T09:53:36.773Z,56.95
2018-06-03T09:54:36.995Z,55.61
2018-06-03T09:55:37.230Z,54.99
2018-06-03T09:58:09.252Z,58.43
2018-06-03T09:59:09.221Z,56.25
2018-06-03T10:00:09.431Z,59.51
2018-06-03T10:01:09.639Z,57.31
2018-06-03T10:02:09.965Z,56.41
2018-06-03T10:03:10.058Z,54.28
2018-06-03T10:04:10.285Z,51.73
2018-06-03T10:06:42.498Z,49.78
2018-06-03T10:07:42.691Z,49.51
2018-06-03T10:08:42.910Z,47.14
2018-06-03T10:09:43.123Z,44.87
2018-06-03T10:10:43.328Z,44.87
2018-06-03T10:11:43.532Z,46.49
2018-06-03T10:12:44.668Z,49.97
2018-06-03T10:13:43.992Z,52.28
2018-06-03T10:14:44.204Z,55.10
2018-06-03T10:15:44.399Z,51.31
2018-06-03T10:16:44.695Z,50.21
2018-06-03T10:17:44.763Z,50.09
2018-06-03T10:18:44.969Z,50.07
2018-06-03T10:19:45.179Z,51.73
2018-06-03T10:20:45.402Z,53.72
2018-06-03T10:21:45.632Z,54.11
2018-06-03T10:22:45.862Z,53.91
2018-06-03T10:23:46.080Z,54.25
2018-06-03T10:24:46.299Z,56.00
2018-06-03T10:25:46.505Z,54.86
2018-06-03T10:26:46.709Z,53.19
2018-06-03T10:27:46.940Z,54.01
2018-06-03T10:28:47.162Z,56.15
2018-06-03T10:29:47.361Z,55.72
2018-06-03T10:30:47.578Z,51.39
2018-06-03T10:31:47.810Z,52.02
2018-06-03T10:32:48.023Z,53.11
2018-06-03T10:33:48.253Z,52.16
2018-06-03T10:34:48.451Z,51.82
2018-06-03T10:35:48.675Z,52.98
2018-06-03T10:36:48.888Z,53.77
2018-06-03T10:37:49.117Z,55.65
2018-06-03T10:38:49.336Z,57.47
2018-06-03T10:39:49.634Z,56.14
2018-06-03T10:40:49.713Z,56.92
2018-06-03T10:41:49.982Z,55.53
2018-06-03T10:42:50.171Z,58.22
2018-06-03T10:43:50.553Z,58.61
2018-06-03T10:44:50.547Z,56.25
2018-06-03T10:45:50.777Z,56.74
2018-06-03T10:46:50.980Z,57.28
2018-06-03T10:47:51.184Z,57.62
2018-06-03T10:48:51.405Z,55.57
2018-06-03T10:49:51.624Z,55.44
2018-06-03T10:50:51.835Z,55.29
2018-06-03T10:51:52.060Z,54.18
2018-06-03T10:52:52.292Z,53.11
2018-06-03T10:53:52.503Z,55.64
2018-06-03T10:54:52.710Z,55.98
2018-06-03T10:55:52.932Z,57.50
2018-06-03T10:56:53.142Z,58.57
2018-06-03T10:57:53.359Z,55.71
2018-06-03T10:58:53.549Z,54.49
2018-06-03T10:59:53.831Z,56.11
2018-06-03T11:00:54.003Z,55.92
2018-06-03T11:01:54.191Z,54.94
2018-06-03T11:02:54.410Z,57.21
2018-06-03T11:03:54.642Z,57.44
2018-06-03T11:04:54.854Z,55.27
2018-06-03T11:05:55.072Z,53.96
2018-06-03T11:08:27.269Z,52.02
2018-06-03T11:09:27.451Z,50.97
2018-06-03T11:10:27.770Z,52.04
2018-06-03T11:11:27.866Z,50.90
2018-06-03T11:12:28.125Z,50.21
2018-06-03T11:13:28.346Z,48.73
2018-06-03T11:14:28.548Z,49.71
2018-06-03T11:15:28.776Z,50.16
2018-06-03T11:16:28.974Z,51.97
2018-06-03T11:17:29.179Z,50.53
2018-06-03T11:18:29.397Z,51.34
2018-06-03T11:19:29.609Z,52.89
2018-06-03T11:20:29.813Z,52.92
2018-06-03T11:21:30.039Z,49.58
2018-06-03T11:22:30.269Z,49.68
2018-06-03T11:23:30.489Z,50.24
2018-06-03T11:24:30.705Z,51.17
2018-06-03T11:25:30.906Z,51.97
2018-06-03T11:26:31.120Z,51.63
2018-06-03T11:27:31.408Z,51.31
2018-06-03T11:28:31.574Z,52.77
2018-06-03T11:29:31.804Z,51.29
2018-06-03T11:30:31.995Z,52.16
2018-06-03T11:31:32.202Z,53.33
2018-06-03T11:32:32.399Z,54.49
2018-06-03T11:33:32.620Z,58.39
2018-06-03T11:34:32.844Z,61.04
2018-06-03T11:35:33.068Z,63.01
2018-06-03T11:36:33.286Z,63.92
2018-06-03T11:37:33.508Z,63.53
2018-06-03T11:38:33.730Z,62.82
2018-06-03T11:39:34.039Z,61.58
2018-06-03T11:40:34.136Z,61.88
2018-06-03T11:41:34.357Z,60.91
2018-06-03T11:42:35.079Z,60.71
2018-06-03T11:43:34.824Z,63.10
2018-06-03T11:46:07.731Z,60.84
2018-06-03T11:47:06.788Z,61.04
2018-06-03T11:48:07.010Z,60.45
2018-06-03T11:49:07.204Z,59.87
2018-06-03T11:50:07.407Z,59.26
2018-06-03T11:51:07.631Z,59.84
2018-06-03T11:52:07.835Z,59.31
2018-06-03T11:53:08.065Z,60.51
2018-06-03T11:54:08.281Z,57.56
2018-06-03T11:55:08.489Z,55.54
2018-06-03T11:57:40.432Z,55.29
2018-06-03T11:58:40.608Z,57.11
2018-06-03T11:59:40.811Z,59.12
2018-06-03T12:00:41.021Z,59.00
2018-06-03T12:01:41.241Z,59.84
2018-06-03T12:02:41.441Z,59.61
2018-06-03T12:03:41.644Z,61.72
2018-06-03T12:04:41.850Z,62.04
2018-06-03T12:07:13.682Z,62.82
2018-06-03T12:08:13.893Z,63.07
2018-06-03T12:09:14.062Z,61.40
2018-06-03T12:10:14.270Z,61.55
2018-06-03T12:11:14.478Z,61.82
2018-06-03T12:12:14.689Z,62.75
2018-06-03T12:13:14.910Z,62.62
2018-06-03T12:14:15.125Z,59.16
2018-06-03T12:15:15.327Z,59.00
2018-06-03T12:16:15.531Z,61.55
2018-06-03T12:17:15.731Z,60.03
2018-06-03T12:18:15.959Z,58.55
2018-06-03T12:19:16.152Z,59.36
2018-06-03T12:20:16.358Z,61.46
2018-06-03T12:21:16.684Z,64.11
2018-06-03T12:22:16.811Z,62.72
2018-06-03T12:23:17.020Z,59.28
2018-06-03T12:24:17.224Z,61.52
2018-06-03T12:25:17.802Z,60.45
2018-06-03T12:26:17.624Z,59.97
2018-06-03T12:27:17.868Z,59.16
2018-06-03T12:28:18.045Z,58.22
2018-06-03T12:29:18.243Z,61.81
2018-06-03T12:30:18.453Z,59.06
2018-06-03T12:31:18.664Z,62.07
2018-06-03T12:32:18.861Z,61.78
2018-06-03T12:33:19.065Z,63.07
2018-06-03T12:34:19.286Z,61.45
2018-06-03T12:36:53.196Z,57.98
2018-06-03T12:37:51.621Z,57.62
2018-06-03T12:38:51.839Z,55.71
2018-06-03T12:39:52.061Z,58.11
2018-06-03T12:40:52.279Z,57.08
2018-06-03T12:41:52.504Z,58.37
2018-06-03T12:42:52.695Z,58.57
2018-06-03T12:43:52.898Z,60.87
2018-06-03T12:44:53.111Z,57.69
2018-06-03T12:45:53.437Z,55.51
2018-06-03T12:46:53.524Z,53.01
2018-06-03T12:47:53.727Z,53.14
2018-06-03T12:48:53.925Z,50.38
2018-06-03T12:49:54.139Z,50.65
2018-06-03T12:50:54.333Z,52.09
2018-06-03T12:51:54.546Z,53.61
2018-06-03T12:52:54.781Z,53.93
2018-06-03T12:53:54.974Z,57.47
2018-06-03T12:54:55.181Z,57.44
2018-06-03T12:55:55.404Z,57.34
2018-06-03T12:56:55.673Z,55.82
2018-06-03T12:57:55.749Z,56.18
2018-06-03T12:58:55.961Z,58.25
2018-06-03T12:59:56.174Z,57.14
2018-06-03T13:00:56.406Z,58.59
2018-06-03T13:01:56.629Z,56.24
2018-06-03T13:02:56.845Z,55.88
2018-06-03T13:03:57.064Z,54.25
2018-06-03T13:04:57.321Z,55.80
2018-06-03T13:05:57.431Z,56.95
2018-06-03T13:06:57.650Z,56.07
2018-06-03T13:07:57.889Z,54.93
2018-06-03T13:08:58.096Z,54.97
2018-06-03T13:09:58.297Z,55.00
2018-06-03T13:10:58.511Z,55.53
2018-06-03T13:11:58.736Z,55.43
2018-06-03T13:12:58.953Z,55.85
2018-06-03T13:13:59.158Z,54.27
2018-06-03T13:14:59.383Z,55.36
2018-06-03T13:15:59.684Z,57.50
2018-06-03T13:16:59.783Z,57.82
2018-06-03T13:18:00.018Z,57.40
2018-06-03T13:19:00.241Z,56.07
2018-06-03T13:20:00.448Z,57.07
2018-06-03T13:21:00.647Z,54.54
2018-06-03T13:22:00.839Z,53.81
2018-06-03T13:23:01.065Z,54.52
2018-06-03T13:24:01.272Z,56.04